createdAt,value
2019-03-25T00:00:47.080Z,101026.91
2019-03-25T00:01:55.652Z,101027.44
2019-03-25T00:03:02.906Z,101030.13
2019-03-25T00:04:09.583Z,101035.62
2019-03-25T00:05:16.845Z,101031.92
2019-03-25T00:06:24.589Z,101029.65
2019-03-25T00:07:31.918Z,101019.99
2019-03-25T00:08:38.664Z,101016.70
2019-03-25T00:09:46.787Z,101021.80
2019-03-25T00:10:53.601Z,101025.30
2019-03-25T00:12:00.537Z,101020.82
2019-03-25T00:13:08.176Z,101028.72
2019-03-25T00:14:14.945Z,101027.50
2019-03-25T00:15:24.123Z,101026.31
2019-03-25T00:16:31.165Z,101019.39
2019-03-25T00:17:37.771Z,101021.09
2019-03-25T00:18:44.544Z,101030.23
2019-03-25T00:19:51.670Z,101021.84
2019-03-25T00:20:58.153Z,101020.61
2019-03-25T00:22:06.410Z,101020.69
2019-03-25T00:23:14.270Z,101014.45
2019-03-25T00:24:21.857Z,101016.91
2019-03-25T00:25:31.531Z,101015.77
2019-03-25T00:26:38.065Z,101005.63
2019-03-25T00:27:45.028Z,101007.47
2019-03-25T00:28:51.739Z,101010.44
2019-03-25T00:29:59.625Z,101005.22
2019-03-25T00:31:06.905Z,101004.86
2019-03-25T00:32:13.255Z,100997.80
2019-03-25T00:33:21.290Z,100994.30
2019-03-25T00:34:29.823Z,100999.03
2019-03-25T00:35:36.435Z,100991.50
2019-03-25T00:36:44.385Z,100994.72
2019-03-25T00:37:51.011Z,100987.80
2019-03-25T00:38:58.703Z,100985.27
2019-03-25T00:40:05.092Z,100992.19
2019-03-25T00:41:12.403Z,100988.36
2019-03-25T00:42:19.503Z,100987.26
2019-03-25T00:43:26.929Z,100981.03
2019-03-25T00:44:33.685Z,100977.98
2019-03-25T00:45:40.834Z,100975.98
2019-03-25T00:46:47.149Z,100980.94
2019-03-25T00:47:53.816Z,100974.84
2019-03-25T00:49:01.049Z,100978.26
2019-03-25T00:50:08.994Z,100969.55
2019-03-25T00:51:18.103Z,100975.32
2019-03-25T00:52:24.604Z,100978.38
2019-03-25T00:53:32.493Z,100972.27
2019-03-25T00:54:49.627Z,100972.64
2019-03-25T00:55:47.798Z,100965.84
2019-03-25T00:56:54.340Z,100966.00
2019-03-25T00:58:01.596Z,100957.98
2019-03-25T00:59:08.597Z,100964.13
2019-03-25T01:00:17.562Z,100966.00
2019-03-25T01:01:24.845Z,100963.52
2019-03-25T01:02:31.644Z,100969.30
2019-03-25T01:03:40.028Z,100963.39
2019-03-25T01:04:48.905Z,100958.87
2019-03-25T01:05:55.649Z,100958.23
2019-03-25T01:07:03.609Z,100951.71
2019-03-25T01:08:10.439Z,100950.48
2019-03-25T01:09:16.666Z,100953.17
2019-03-25T01:10:22.965Z,100952.36
2019-03-25T01:11:30.766Z,100949.38
2019-03-25T01:12:36.949Z,100947.80
2019-03-25T01:13:43.799Z,100950.28
2019-03-25T01:14:50.879Z,100949.59
2019-03-25T01:15:57.969Z,100949.06
2019-03-25T01:17:05.309Z,100936.72
2019-03-25T01:18:16.809Z,100936.77
2019-03-25T01:19:19.988Z,100945.89
2019-03-25T01:20:27.481Z,100938.52
2019-03-25T01:21:35.126Z,100938.07
2019-03-25T01:22:44.099Z,100938.44
2019-03-25T01:23:51.079Z,100928.22
2019-03-25T01:25:02.161Z,100930.30
2019-03-25T01:26:06.631Z,100923.78
2019-03-25T01:27:14.100Z,100920.77
2019-03-25T01:28:21.150Z,100919.87
2019-03-25T01:29:30.287Z,100923.20
2019-03-25T01:30:37.872Z,100925.13
2019-03-25T01:31:45.449Z,100913.11
2019-03-25T01:32:53.727Z,100915.72
2019-03-25T01:34:00.722Z,100916.98
2019-03-25T01:35:07.738Z,100914.29
2019-03-25T01:36:15.481Z,100916.90
2019-03-25T01:37:24.124Z,100914.78
2019-03-25T01:38:31.315Z,100910.50
2019-03-25T01:39:38.074Z,100909.84
2019-03-25T01:40:44.696Z,100910.66
2019-03-25T01:41:51.913Z,100905.05
2019-03-25T01:43:00.041Z,100906.88
2019-03-25T01:44:07.354Z,100908.59
2019-03-25T01:45:14.923Z,100899.75
2019-03-25T01:46:21.529Z,100894.02
2019-03-25T01:47:28.666Z,100890.92
2019-03-25T01:48:35.325Z,100891.33
2019-03-25T01:49:42.844Z,100887.50
2019-03-25T01:50:49.814Z,100882.81
2019-03-25T01:51:57.015Z,100885.75
2019-03-25T01:53:03.564Z,100884.94
2019-03-25T01:54:12.176Z,100888.36
2019-03-25T01:55:19.652Z,100875.91
2019-03-25T01:56:26.786Z,100872.16
2019-03-25T01:57:35.186Z,100878.06
2019-03-25T01:58:41.994Z,100868.38
2019-03-25T01:59:49.151Z,100872.66
2019-03-25T02:00:56.548Z,100864.77
2019-03-25T02:02:03.659Z,100861.27
2019-03-25T02:03:11.776Z,100864.55
2019-03-25T02:04:21.149Z,100855.84
2019-03-25T02:05:28.819Z,100859.27
2019-03-25T02:06:35.359Z,100848.52
2019-03-25T02:07:41.856Z,100858.94
2019-03-25T02:08:49.179Z,100853.72
2019-03-25T02:09:55.683Z,100839.92
2019-03-25T02:11:02.864Z,100838.02
2019-03-25T02:12:09.499Z,100844.33
2019-03-25T02:13:16.993Z,100846.33
2019-03-25T02:14:23.392Z,100840.51
2019-03-25T02:15:31.432Z,100843.88
2019-03-25T02:16:39.422Z,100834.77
2019-03-25T02:17:47.052Z,100823.37
2019-03-25T02:18:54.046Z,100829.36
2019-03-25T02:20:00.830Z,100830.17
2019-03-25T02:21:09.056Z,100827.98
2019-03-25T02:22:15.276Z,100831.96
2019-03-25T02:23:21.517Z,100821.59
2019-03-25T02:24:28.626Z,100829.56
2019-03-25T02:25:36.614Z,100822.41
2019-03-25T02:26:43.538Z,100824.48
2019-03-25T02:27:50.391Z,100815.65
2019-03-25T02:28:57.550Z,100813.78
2019-03-25T02:30:05.257Z,100818.95
2019-03-25T02:31:12.577Z,100816.22
2019-03-25T02:32:19.263Z,100813.05
2019-03-25T02:33:25.995Z,100806.42
2019-03-25T02:34:33.052Z,100813.82
2019-03-25T02:35:40.929Z,100812.44
2019-03-25T02:36:47.886Z,100799.42
2019-03-25T02:37:55.756Z,100802.92
2019-03-25T02:39:02.511Z,100799.42
2019-03-25T02:40:13.037Z,100802.11
2019-03-25T02:41:21.757Z,100796.20
2019-03-25T02:42:29.020Z,100799.34
2019-03-25T02:43:35.344Z,100794.95
2019-03-25T02:44:44.076Z,100789.30
2019-03-25T02:45:50.678Z,100779.70
2019-03-25T02:46:57.092Z,100781.52
2019-03-25T02:48:04.677Z,100781.60
2019-03-25T02:49:11.215Z,100779.00
2019-03-25T02:50:17.937Z,100773.59
2019-03-25T02:51:25.233Z,100765.58
2019-03-25T02:52:32.008Z,100766.80
2019-03-25T02:53:38.954Z,100762.37
2019-03-25T02:54:47.747Z,100758.95
2019-03-25T02:55:54.327Z,100764.56
2019-03-25T02:57:01.125Z,100761.75
2019-03-25T02:58:07.030Z,100758.26
2019-03-25T02:59:14.990Z,100758.86
2019-03-25T03:00:31.806Z,100759.68
2019-03-25T03:01:39.101Z,100764.81
2019-03-25T03:02:45.882Z,100753.95
2019-03-25T03:03:52.637Z,100763.47
2019-03-25T03:04:59.479Z,100755.45
2019-03-25T03:06:06.297Z,100750.13
2019-03-25T03:07:15.037Z,100749.23
2019-03-25T03:08:21.882Z,100746.06
2019-03-25T03:09:29.589Z,100749.84
2019-03-25T03:10:38.547Z,100740.95
2019-03-25T03:11:45.023Z,100737.00
2019-03-25T03:12:52.146Z,100748.95
2019-03-25T03:13:59.479Z,100740.62
2019-03-25T03:15:08.680Z,100745.01
2019-03-25T03:16:16.160Z,100733.91
2019-03-25T03:17:25.290Z,100734.72
2019-03-25T03:18:32.165Z,100725.62
2019-03-25T03:19:38.702Z,100725.13
2019-03-25T03:20:47.246Z,100728.75
2019-03-25T03:21:54.665Z,100731.34
2019-03-25T03:23:01.444Z,100723.62
2019-03-25T03:24:08.177Z,100723.01
2019-03-25T03:25:14.358Z,100719.22
2019-03-25T03:26:20.949Z,100719.59
2019-03-25T03:27:30.086Z,100720.00
2019-03-25T03:28:37.856Z,100714.83
2019-03-25T03:29:44.377Z,100708.33
2019-03-25T03:30:53.833Z,100707.59
2019-03-25T03:32:00.836Z,100707.52
2019-03-25T03:33:08.008Z,100703.12
2019-03-25T03:34:14.906Z,100706.58
2019-03-25T03:35:23.928Z,100699.98
2019-03-25T03:36:30.722Z,100697.51
2019-03-25T03:37:36.786Z,100693.89
2019-03-25T03:38:43.414Z,100702.52
2019-03-25T03:39:49.756Z,100692.39
2019-03-25T03:40:56.253Z,100698.13
2019-03-25T03:42:04.051Z,100695.27
2019-03-25T03:43:11.293Z,100689.78
2019-03-25T03:44:18.624Z,100692.86
2019-03-25T03:45:25.940Z,100688.95
2019-03-25T03:46:33.055Z,100691.60
2019-03-25T03:47:40.008Z,100685.47
2019-03-25T03:48:46.235Z,100693.39
2019-03-25T03:49:53.540Z,100686.88
2019-03-25T03:51:00.544Z,100684.69
2019-03-25T03:52:06.864Z,100674.77
2019-03-25T03:53:13.900Z,100675.17
2019-03-25T03:54:22.738Z,100683.47
2019-03-25T03:55:30.356Z,100677.77
2019-03-25T03:56:37.716Z,100676.55
2019-03-25T03:57:44.431Z,100667.77
2019-03-25T03:58:51.631Z,100669.44
2019-03-25T03:59:59.615Z,100674.91
2019-03-25T04:01:06.695Z,100677.05
2019-03-25T04:02:13.802Z,100675.67
2019-03-25T04:03:21.924Z,100669.75
2019-03-25T04:04:28.964Z,100668.17
2019-03-25T04:05:36.011Z,100665.38
2019-03-25T04:06:43.032Z,100662.09
2019-03-25T04:07:50.196Z,100657.17
2019-03-25T04:08:57.894Z,100663.19
2019-03-25T04:10:05.868Z,100658.34
2019-03-25T04:11:12.991Z,100656.64
2019-03-25T04:12:22.046Z,100651.72
2019-03-25T04:13:37.410Z,100652.54
2019-03-25T04:14:45.388Z,100650.95
2019-03-25T04:15:52.090Z,100649.45
2019-03-25T04:16:59.783Z,100649.33
2019-03-25T04:18:06.267Z,100639.70
2019-03-25T04:19:12.902Z,100648.36
2019-03-25T04:20:19.336Z,100640.56
2019-03-25T04:21:26.510Z,100639.34
2019-03-25T04:22:33.347Z,100639.83
2019-03-25T04:23:40.619Z,100642.06
2019-03-25T04:24:47.632Z,100635.16
2019-03-25T04:25:54.063Z,100632.83
2019-03-25T04:27:00.393Z,100631.24
2019-03-25T04:28:07.804Z,100635.62
2019-03-25T04:29:16.211Z,100630.42
2019-03-25T04:30:23.636Z,100627.42
2019-03-25T04:31:29.969Z,100628.51
2019-03-25T04:32:37.014Z,100623.42
2019-03-25T04:33:43.615Z,100632.17
2019-03-25T04:34:49.850Z,100621.76
2019-03-25T04:35:57.081Z,100630.01
2019-03-25T04:37:04.443Z,100626.92
2019-03-25T04:38:12.677Z,100622.73
2019-03-25T04:39:19.890Z,100623.74
2019-03-25T04:40:26.653Z,100624.02
2019-03-25T04:41:33.540Z,100625.43
2019-03-25T04:42:40.990Z,100629.74
2019-03-25T04:43:47.751Z,100625.91
2019-03-25T04:44:54.554Z,100630.02
2019-03-25T04:46:01.398Z,100630.91
2019-03-25T04:47:08.276Z,100627.00
2019-03-25T04:48:15.190Z,100627.86
2019-03-25T04:49:23.020Z,100632.81
2019-03-25T04:50:29.937Z,100626.01
2019-03-25T04:51:38.495Z,100625.64
2019-03-25T04:52:45.772Z,100624.00
2019-03-25T04:53:53.142Z,100621.89
2019-03-25T04:55:00.945Z,100627.54
2019-03-25T04:56:07.585Z,100624.61
2019-03-25T04:57:14.278Z,100618.62
2019-03-25T04:58:21.494Z,100620.59
2019-03-25T04:59:27.804Z,100619.67
2019-03-25T05:00:38.762Z,100621.41
2019-03-25T05:01:45.238Z,100616.84
2019-03-25T05:02:51.833Z,100613.22
2019-03-25T05:03:58.355Z,100617.45
2019-03-25T05:05:05.421Z,100616.06
2019-03-25T05:06:11.983Z,100614.12
2019-03-25T05:07:38.965Z,100609.63
2019-03-25T05:08:45.716Z,100612.04
2019-03-25T05:09:52.148Z,100603.91
2019-03-25T05:10:58.561Z,100602.13
2019-03-25T05:12:05.803Z,100596.50
2019-03-25T05:13:12.592Z,100603.02
2019-03-25T05:14:20.742Z,100596.16
2019-03-25T05:15:27.451Z,100587.97
2019-03-25T05:16:34.383Z,100591.53
2019-03-25T05:17:40.403Z,100585.02
2019-03-25T05:18:47.567Z,100581.59
2019-03-25T05:19:54.115Z,100568.17
2019-03-25T05:21:00.926Z,100569.55
2019-03-25T05:22:07.513Z,100567.52
2019-03-25T05:23:13.821Z,100566.28
2019-03-25T05:24:20.941Z,100570.30
2019-03-25T05:25:27.145Z,100564.36
2019-03-25T05:26:34.066Z,100567.20
2019-03-25T05:27:43.282Z,100566.50
2019-03-25T05:28:50.565Z,100558.43
2019-03-25T05:29:57.178Z,100556.94
2019-03-25T05:31:03.522Z,100553.22
2019-03-25T05:32:10.068Z,100557.86
2019-03-25T05:33:16.489Z,100562.03
2019-03-25T05:34:23.052Z,100555.73
2019-03-25T05:35:29.622Z,100562.41
2019-03-25T05:36:35.986Z,100563.05
2019-03-25T05:37:43.058Z,100558.23
2019-03-25T05:38:50.473Z,100559.70
2019-03-25T05:39:58.009Z,100554.22
2019-03-25T05:41:05.114Z,100556.53
2019-03-25T05:42:17.301Z,100553.25
2019-03-25T05:43:24.969Z,100558.14
2019-03-25T05:44:33.738Z,100553.06
2019-03-25T05:45:40.947Z,100551.50
2019-03-25T05:46:47.485Z,100548.20
2019-03-25T05:47:54.145Z,100552.27
2019-03-25T05:49:00.989Z,100554.14
2019-03-25T05:50:10.097Z,100552.08
2019-03-25T05:51:18.518Z,100554.42
2019-03-25T05:52:25.761Z,100558.02
2019-03-25T05:53:32.335Z,100552.94
2019-03-25T05:54:39.387Z,100556.52
2019-03-25T05:55:46.367Z,100547.93
2019-03-25T05:57:02.476Z,100553.72
2019-03-25T05:58:05.360Z,100557.36
2019-03-25T05:59:12.159Z,100550.00
2019-03-25T06:00:22.291Z,100560.14
2019-03-25T06:01:29.532Z,100554.97
2019-03-25T06:02:36.140Z,100553.30
2019-03-25T06:03:42.689Z,100563.76
2019-03-25T06:04:49.059Z,100553.80
2019-03-25T06:05:56.131Z,100550.84
2019-03-25T06:07:02.681Z,100555.38
2019-03-25T06:08:09.658Z,100551.06
2019-03-25T06:09:16.794Z,100551.67
2019-03-25T06:10:25.310Z,100548.41
2019-03-25T06:11:33.232Z,100555.45
2019-03-25T06:12:43.478Z,100554.69
2019-03-25T06:13:53.721Z,100554.77
2019-03-25T06:15:02.225Z,100549.13
2019-03-25T06:16:13.161Z,100552.34
2019-03-25T06:17:26.790Z,100553.23
2019-03-25T06:18:37.508Z,100557.57
2019-03-25T06:19:47.151Z,100547.94
2019-03-25T06:20:54.565Z,100548.36
2019-03-25T06:22:01.999Z,100548.78
2019-03-25T06:23:14.942Z,100545.37
2019-03-25T06:24:21.580Z,100551.94
2019-03-25T06:25:28.059Z,100549.37
2019-03-25T06:26:35.389Z,100535.88
2019-03-25T06:27:43.222Z,100542.42
2019-03-25T06:28:49.763Z,100540.28
2019-03-25T06:29:56.264Z,100538.70
2019-03-25T06:31:05.036Z,100539.25
2019-03-25T06:32:12.272Z,100539.77
2019-03-25T06:33:19.649Z,100535.45
2019-03-25T06:34:26.799Z,100537.70
2019-03-25T06:35:33.625Z,100531.05
2019-03-25T06:36:40.029Z,100534.97
2019-03-25T06:37:46.871Z,100531.58
2019-03-25T06:38:53.995Z,100528.56
2019-03-25T06:40:00.554Z,100528.19
2019-03-25T06:41:07.955Z,100523.03
2019-03-25T06:42:16.665Z,100525.75
2019-03-25T06:43:25.274Z,100526.72
2019-03-25T06:44:33.149Z,100523.33
2019-03-25T06:45:39.940Z,100518.56
2019-03-25T06:46:46.390Z,100520.53
2019-03-25T06:47:53.830Z,100519.78
2019-03-25T06:49:01.563Z,100519.13
2019-03-25T06:50:10.197Z,100522.28
2019-03-25T06:51:16.877Z,100521.19
2019-03-25T06:52:23.516Z,100517.27
2019-03-25T06:53:29.883Z,100521.67
2019-03-25T06:54:37.221Z,100525.23
2019-03-25T06:55:43.551Z,100523.09
2019-03-25T06:56:54.274Z,100527.14
2019-03-25T06:58:03.950Z,100527.91
2019-03-25T06:59:11.394Z,100525.23
2019-03-25T07:00:18.709Z,100522.14
2019-03-25T07:01:24.732Z,100521.72
2019-03-25T07:02:31.639Z,100519.09
2019-03-25T07:03:38.580Z,100519.53
2019-03-25T07:04:44.748Z,100525.23
2019-03-25T07:05:50.802Z,100523.82
2019-03-25T07:06:56.802Z,100518.68
2019-03-25T07:08:03.371Z,100517.80
2019-03-25T07:09:10.302Z,100511.30
2019-03-25T07:10:32.550Z,100510.37
2019-03-25T07:11:39.422Z,100504.59
2019-03-25T07:12:45.411Z,100498.39
2019-03-25T07:13:51.574Z,100501.33
2019-03-25T07:14:57.709Z,100495.20
2019-03-25T07:16:03.859Z,100501.43
2019-03-25T07:17:10.623Z,100498.03
2019-03-25T07:18:18.949Z,100495.90
2019-03-25T07:19:25.631Z,100491.66
2019-03-25T07:20:32.669Z,100487.78
2019-03-25T07:21:39.189Z,100487.38
2019-03-25T07:22:46.349Z,100489.09
2019-03-25T07:23:53.812Z,100492.19
2019-03-25T07:24:59.833Z,100490.52
2019-03-25T07:26:07.235Z,100483.30
2019-03-25T07:27:14.660Z,100480.01
2019-03-25T07:28:20.952Z,100481.42
2019-03-25T07:29:27.792Z,100480.27
2019-03-25T07:30:34.822Z,100481.80
2019-03-25T07:31:40.903Z,100481.89
2019-03-25T07:32:48.869Z,100480.74
2019-03-25T07:33:56.132Z,100484.82
2019-03-25T07:35:02.649Z,100484.13
2019-03-25T07:36:09.870Z,100476.92
2019-03-25T07:37:15.992Z,100473.59
2019-03-25T07:38:22.652Z,100478.00
2019-03-25T07:39:28.950Z,100481.56
2019-03-25T07:40:34.922Z,100478.52
2019-03-25T07:41:41.949Z,100478.51
2019-03-25T07:42:47.830Z,100478.09
2019-03-25T07:43:55.270Z,100473.27
2019-03-25T07:45:02.822Z,100474.95
2019-03-25T07:46:08.962Z,100476.27
2019-03-25T07:47:16.250Z,100473.70
2019-03-25T07:48:22.749Z,100474.58
2019-03-25T07:49:29.042Z,100472.89
2019-03-25T07:50:35.467Z,100471.59
2019-03-25T07:51:42.060Z,100470.65
2019-03-25T07:52:48.353Z,100468.36
2019-03-25T07:53:55.436Z,100473.69
2019-03-25T07:55:03.156Z,100473.36
2019-03-25T07:56:11.700Z,100477.02
2019-03-25T07:57:18.481Z,100479.91
2019-03-25T07:58:24.841Z,100473.52
2019-03-25T07:59:31.421Z,100481.52
2019-03-25T08:00:37.901Z,100478.17
2019-03-25T08:01:45.583Z,100468.56
2019-03-25T08:02:53.796Z,100473.98
2019-03-25T08:04:00.430Z,100475.41
2019-03-25T08:05:08.891Z,100472.95
2019-03-25T08:06:16.348Z,100471.79
2019-03-25T08:07:32.968Z,100471.09
2019-03-25T08:08:40.453Z,100464.27
2019-03-25T08:09:46.468Z,100459.98
2019-03-25T08:10:53.845Z,100452.66
2019-03-25T08:12:00.643Z,100452.83
2019-03-25T08:13:06.647Z,100453.94
2019-03-25T08:14:13.540Z,100445.77
2019-03-25T08:15:21.133Z,100456.05
2019-03-25T08:16:27.163Z,100454.93
2019-03-25T08:17:33.930Z,100447.11
2019-03-25T08:18:41.023Z,100456.41
2019-03-25T08:19:47.583Z,100450.30
2019-03-25T08:20:54.673Z,100448.59
2019-03-25T08:22:00.520Z,100454.86
2019-03-25T08:23:09.250Z,100453.98
2019-03-25T08:24:17.355Z,100452.61
2019-03-25T08:25:24.584Z,100447.39
2019-03-25T08:26:42.660Z,100448.40
2019-03-25T08:27:59.489Z,100453.61
2019-03-25T08:28:59.951Z,100448.92
2019-03-25T08:30:09.195Z,100449.91
2019-03-25T08:31:15.450Z,100450.86
2019-03-25T08:32:22.571Z,100453.98
2019-03-25T08:33:30.791Z,100445.77
2019-03-25T08:34:36.980Z,100444.97
2019-03-25T08:35:45.107Z,100444.58
2019-03-25T08:36:51.110Z,100439.42
2019-03-25T08:37:59.223Z,100434.66
2019-03-25T08:39:07.570Z,100433.80
2019-03-25T08:40:13.734Z,100430.31
2019-03-25T08:41:20.674Z,100434.75
2019-03-25T08:42:27.303Z,100434.84
2019-03-25T08:43:33.533Z,100426.42
2019-03-25T08:44:40.253Z,100423.39
2019-03-25T08:45:47.033Z,100426.03
2019-03-25T08:46:53.745Z,100430.95
2019-03-25T08:48:01.183Z,100427.39
2019-03-25T08:49:07.813Z,100428.25
2019-03-25T08:50:38.066Z,100427.42
2019-03-25T08:51:47.604Z,100428.78
2019-03-25T08:52:54.381Z,100430.09
2019-03-25T08:54:02.775Z,100431.38
2019-03-25T08:55:09.313Z,100427.86
2019-03-25T08:56:15.514Z,100430.86
2019-03-25T08:57:21.724Z,100433.42
2019-03-25T08:58:28.111Z,100433.41
2019-03-25T08:59:36.341Z,100434.70
2019-03-25T09:00:42.790Z,100434.22
2019-03-25T09:01:49.424Z,100430.28
2019-03-25T09:02:55.785Z,100431.68
2019-03-25T09:04:01.704Z,100427.34
2019-03-25T09:05:09.353Z,100430.11
2019-03-25T09:06:15.982Z,100434.95
2019-03-25T09:07:22.263Z,100431.01
2019-03-25T09:08:28.383Z,100433.66
2019-03-25T09:09:35.262Z,100431.47
2019-03-25T09:10:42.353Z,100434.14
2019-03-25T09:11:48.605Z,100428.43
2019-03-25T09:12:54.467Z,100426.67
2019-03-25T09:14:00.531Z,100431.05
2019-03-25T09:15:08.942Z,100431.48
2019-03-25T09:16:14.813Z,100425.27
2019-03-25T09:17:20.766Z,100423.48
2019-03-25T09:18:26.822Z,100426.59
2019-03-25T09:19:32.845Z,100429.23
2019-03-25T09:20:39.125Z,100430.11
2019-03-25T09:21:45.712Z,100426.16
2019-03-25T09:22:51.761Z,100429.23
2019-03-25T09:23:57.596Z,100424.38
2019-03-25T09:25:03.974Z,100424.83
2019-03-25T09:26:10.571Z,100416.95
2019-03-25T09:27:16.934Z,100414.30
2019-03-25T09:28:24.454Z,100422.19
2019-03-25T09:29:33.185Z,100421.70
2019-03-25T09:30:58.956Z,100425.58
2019-03-25T09:32:06.201Z,100422.51
2019-03-25T09:33:12.664Z,100419.49
2019-03-25T09:34:19.102Z,100424.81
2019-03-25T09:35:25.818Z,100423.50
2019-03-25T09:36:32.101Z,100408.98
2019-03-25T09:37:39.185Z,100419.11
2019-03-25T09:38:45.494Z,100411.66
2019-03-25T09:39:52.112Z,100420.45
2019-03-25T09:40:57.855Z,100419.13
2019-03-25T09:42:03.783Z,100420.83
2019-03-25T09:43:09.752Z,100422.97
2019-03-25T09:44:15.669Z,100412.91
2019-03-25T09:45:22.211Z,100416.89
2019-03-25T09:46:28.154Z,100415.13
2019-03-25T09:47:34.351Z,100415.15
2019-03-25T09:48:40.404Z,100409.43
2019-03-25T09:49:46.455Z,100403.73
2019-03-25T09:50:52.314Z,100400.23
2019-03-25T09:51:58.975Z,100405.08
2019-03-25T09:53:06.484Z,100406.42
2019-03-25T09:54:12.421Z,100400.27
2019-03-25T09:55:18.504Z,100401.58
2019-03-25T09:56:25.123Z,100400.70
2019-03-25T09:57:31.544Z,100399.83
2019-03-25T09:58:37.744Z,100399.81
2019-03-25T09:59:44.574Z,100396.33
2019-03-25T10:00:52.140Z,100397.64
2019-03-25T10:01:58.333Z,100398.95
2019-03-25T10:03:05.933Z,100402.91
2019-03-25T10:04:12.334Z,100402.02
2019-03-25T10:05:19.054Z,100400.28
2019-03-25T10:06:25.632Z,100396.31
2019-03-25T10:07:32.154Z,100392.35
2019-03-25T10:08:38.901Z,100390.13
2019-03-25T10:09:45.858Z,100400.73
2019-03-25T10:10:54.832Z,100397.63
2019-03-25T10:12:00.824Z,100392.34
2019-03-25T10:13:06.674Z,100401.59
2019-03-25T10:14:12.604Z,100397.64
2019-03-25T10:15:19.263Z,100398.08
2019-03-25T10:16:25.371Z,100397.19
2019-03-25T10:17:32.754Z,100391.91
2019-03-25T10:18:39.864Z,100389.28
2019-03-25T10:19:46.044Z,100396.31
2019-03-25T10:20:52.034Z,100390.58
2019-03-25T10:21:59.522Z,100389.71
2019-03-25T10:23:05.355Z,100387.49
2019-03-25T10:24:11.462Z,100386.62
2019-03-25T10:25:17.782Z,100380.88
2019-03-25T10:26:23.942Z,100387.05
2019-03-25T10:27:30.385Z,100379.14
2019-03-25T10:28:48.025Z,100384.41
2019-03-25T10:29:45.135Z,100378.70
2019-03-25T10:30:52.067Z,100383.52
2019-03-25T10:31:59.452Z,100385.72
2019-03-25T10:33:06.591Z,100384.86
2019-03-25T10:34:13.134Z,100385.30
2019-03-25T10:35:19.805Z,100371.64
2019-03-25T10:36:26.954Z,100376.05
2019-03-25T10:37:32.804Z,100373.42
2019-03-25T10:38:39.824Z,100378.25
2019-03-25T10:39:47.904Z,100370.28
2019-03-25T10:40:54.709Z,100374.22
2019-03-25T10:42:00.689Z,100373.33
2019-03-25T10:43:06.561Z,100378.61
2019-03-25T10:44:13.211Z,100371.14
2019-03-25T10:45:19.411Z,100376.41
2019-03-25T10:46:25.391Z,100365.78
2019-03-25T10:47:31.434Z,100368.82
2019-03-25T10:48:38.991Z,100368.82
2019-03-25T10:49:44.993Z,100362.23
2019-03-25T10:50:52.248Z,100367.58
2019-03-25T10:51:59.624Z,100372.44
2019-03-25T10:53:05.562Z,100364.11
2019-03-25T10:54:12.135Z,100367.17
2019-03-25T10:55:18.034Z,100364.51
2019-03-25T10:56:24.502Z,100360.99
2019-03-25T10:57:30.832Z,100368.49
2019-03-25T10:58:36.865Z,100345.16
2019-03-25T10:59:42.828Z,100362.35
2019-03-25T11:00:49.096Z,100361.92
2019-03-25T11:01:55.752Z,100376.47
2019-03-25T11:03:01.995Z,100376.47
2019-03-25T11:04:08.861Z,100376.46
2019-03-25T11:05:15.305Z,100376.46
2019-03-25T11:06:23.431Z,100377.81
2019-03-25T11:07:29.673Z,100371.63
2019-03-25T11:08:36.976Z,100372.52
2019-03-25T11:09:43.752Z,100372.08
2019-03-25T11:10:50.145Z,100374.27
2019-03-25T11:11:56.822Z,100380.45
2019-03-25T11:13:03.005Z,100379.98
2019-03-25T11:14:09.052Z,100375.59
2019-03-25T11:15:17.926Z,100376.45
2019-03-25T11:16:24.155Z,100380.84
2019-03-25T11:17:30.196Z,100374.67
2019-03-25T11:18:36.335Z,100376.44
2019-03-25T11:19:42.512Z,100379.53
2019-03-25T11:20:48.672Z,100379.52
2019-03-25T11:21:54.730Z,100383.01
2019-03-25T11:23:00.863Z,100382.59
2019-03-25T11:24:07.195Z,100379.07
2019-03-25T11:25:13.503Z,100381.24
2019-03-25T11:26:20.865Z,100377.75
2019-03-25T11:27:27.472Z,100389.63
2019-03-25T11:28:33.362Z,100397.98
2019-03-25T11:29:40.745Z,100393.98
2019-03-25T11:30:55.393Z,100397.00
2019-03-25T11:32:03.264Z,100402.22
2019-03-25T11:33:09.695Z,100407.88
2019-03-25T11:34:15.886Z,100414.38
2019-03-25T11:35:22.576Z,100429.57
2019-03-25T11:36:29.055Z,100429.33
2019-03-25T11:37:35.263Z,100439.66
2019-03-25T11:38:41.444Z,100441.27
2019-03-25T11:39:47.375Z,100435.02
2019-03-25T11:40:54.597Z,100446.81
2019-03-25T11:42:00.686Z,100445.04
2019-03-25T11:43:06.472Z,100438.44
2019-03-25T11:44:12.365Z,100450.23
2019-03-25T11:45:18.392Z,100447.54
2019-03-25T11:46:24.783Z,100455.04
2019-03-25T11:47:34.244Z,100454.58
2019-03-25T11:48:40.175Z,100444.45
2019-03-25T11:49:46.343Z,100454.53
2019-03-25T11:50:52.254Z,100452.67
2019-03-25T11:51:58.445Z,100452.55
2019-03-25T11:53:04.602Z,100452.41
2019-03-25T11:54:10.553Z,100451.06
2019-03-25T11:55:17.855Z,100450.18
2019-03-25T11:56:25.353Z,100449.72
2019-03-25T11:57:31.526Z,100447.92
2019-03-25T11:58:39.015Z,100451.03
2019-03-25T11:59:45.872Z,100454.58
2019-03-25T12:00:52.715Z,100454.16
2019-03-25T12:02:00.723Z,100452.88
2019-03-25T12:03:08.172Z,100454.27
2019-03-25T12:04:14.275Z,100455.28
2019-03-25T12:05:20.587Z,100460.65
2019-03-25T12:06:28.346Z,100456.86
2019-03-25T12:07:34.684Z,100458.23
2019-03-25T12:08:40.916Z,100457.75
2019-03-25T12:09:48.112Z,100465.11
2019-03-25T12:10:55.014Z,100456.70
2019-03-25T12:12:01.783Z,100458.88
2019-03-25T12:13:07.665Z,100458.50
2019-03-25T12:14:14.263Z,100455.44
2019-03-25T12:15:20.260Z,100458.07
2019-03-25T12:16:26.202Z,100460.67
2019-03-25T12:17:32.216Z,100460.22
2019-03-25T12:18:38.387Z,100459.82
2019-03-25T12:19:44.565Z,100463.84
2019-03-25T12:20:50.513Z,100461.27
2019-03-25T12:21:56.445Z,100456.48
2019-03-25T12:23:02.966Z,100459.60
2019-03-25T12:24:09.449Z,100458.58
2019-03-25T12:25:15.619Z,100456.76
2019-03-25T12:26:23.375Z,100460.28
2019-03-25T12:27:29.574Z,100462.36
2019-03-25T12:28:37.386Z,100468.89
2019-03-25T12:29:44.302Z,100459.14
2019-03-25T12:30:52.003Z,100460.91
2019-03-25T12:31:58.056Z,100464.95
2019-03-25T12:33:04.592Z,100466.27
2019-03-25T12:34:10.474Z,100470.63
2019-03-25T12:35:16.996Z,100468.92
2019-03-25T12:36:23.833Z,100465.38
2019-03-25T12:37:29.955Z,100468.00
2019-03-25T12:38:36.881Z,100465.83
2019-03-25T12:39:43.952Z,100467.98
2019-03-25T12:40:50.515Z,100465.34
2019-03-25T12:41:58.319Z,100467.52
2019-03-25T12:43:04.187Z,100468.41
2019-03-25T12:44:10.098Z,100465.77
2019-03-25T12:45:17.737Z,100467.14
2019-03-25T12:46:23.645Z,100463.14
2019-03-25T12:47:30.216Z,100465.83